Red Oak, Iowa
Current Conditions -  °F | °C
As of 9:35 AM on Monday 22 Dec 2014 (Local Time) from KRDK Reporting Station
Unknown Precip Unknown Precip  
Wind Chill: 34°   Ceiling: 600
Heat Index: 41°   Visibility: 4mi
Dew Point: 41°   Wind: 12mph
Humidity: 100%   Direction: 160°SSE
Pressure: 29.55"   Gusts: NA
Location:  41.01°N, 95.23°W
Report Text: KRDK 221535Z AUTO 16010KT 4SM -UP OVC006 05/05 A2955 RMK AO2
Loading
Personal Weather Stations






























Interactive Weather Map New forecast layout! Learn more

10-Day Weather Forecast

Advertisements
Track Severe Weather on mobile